createdAt,value
2018-08-23T00:00:22.758Z,35.6
2018-08-23T00:01:24.677Z,35.6
2018-08-23T00:02:26.579Z,35.6
2018-08-23T00:03:28.823Z,35.5
2018-08-23T00:04:31.358Z,35.6
2018-08-23T00:05:33.809Z,35.6
2018-08-23T00:06:35.973Z,35.7
2018-08-23T00:07:37.870Z,35.6
2018-08-23T00:08:40.024Z,35.6
2018-08-23T00:09:42.512Z,35.7
2018-08-23T00:10:45.021Z,35.5
2018-08-23T00:11:46.888Z,35.6
2018-08-23T00:12:49.083Z,35.5
2018-08-23T00:13:51.383Z,35.6
2018-08-23T00:14:53.402Z,35.8
2018-08-23T00:15:55.344Z,35.7
2018-08-23T00:16:57.538Z,35.6
2018-08-23T00:17:59.983Z,35.7
2018-08-23T00:19:02.414Z,35.7
2018-08-23T00:20:04.877Z,35.6
2018-08-23T00:21:07.314Z,35.7
2018-08-23T00:22:09.768Z,35.6
2018-08-23T00:23:11.945Z,35.7
2018-08-23T00:24:14.147Z,35.7
2018-08-23T00:25:16.605Z,35.7
2018-08-23T00:26:19.052Z,35.6
2018-08-23T00:27:21.517Z,35.8
2018-08-23T00:28:23.974Z,35.6
2018-08-23T00:29:26.136Z,35.5
2018-08-23T00:30:28.321Z,35.6
2018-08-23T00:31:30.785Z,35.7
2018-08-23T00:32:32.698Z,35.5
2018-08-23T00:33:34.867Z,35.7
2018-08-23T00:34:37.049Z,35.6
2018-08-23T00:35:39.505Z,35.7
2018-08-23T00:36:41.965Z,35.7
2018-08-23T00:37:44.427Z,35.7
2018-08-23T00:38:46.332Z,35.7
2018-08-23T00:39:48.787Z,35.7
2018-08-23T00:40:51.004Z,35.6
2018-08-23T00:41:52.892Z,35.7
2018-08-23T00:42:55.111Z,35.7
2018-08-23T00:43:57.571Z,35.9
2018-08-23T00:44:59.486Z,35.7
2018-08-23T00:46:01.344Z,35.6
2018-08-23T00:47:03.515Z,35.8
2018-08-23T00:48:05.399Z,35.7
2018-08-23T00:49:07.567Z,35.6
2018-08-23T00:50:09.767Z,35.7
2018-08-23T00:51:11.951Z,35.6
2018-08-23T00:52:14.411Z,35.6
2018-08-23T00:53:16.854Z,35.6
2018-08-23T00:54:19.248Z,35.7
2018-08-23T00:55:21.749Z,35.7
2018-08-23T00:56:24.184Z,35.6
2018-08-23T00:57:26.642Z,35.6
2018-08-23T00:58:29.101Z,35.6
2018-08-23T00:59:31.315Z,35.7
2018-08-23T01:00:33.763Z,35.5
2018-08-23T01:01:35.949Z,35.6
2018-08-23T01:02:38.135Z,35.6
2018-08-23T01:03:40.588Z,35.6
2018-08-23T01:04:43.034Z,35.7
2018-08-23T01:05:45.230Z,35.7
2018-08-23T01:06:47.394Z,35.4
2018-08-23T01:07:49.606Z,35.7
2018-08-23T01:08:51.778Z,35.6
2018-08-23T01:09:54.235Z,35.6
2018-08-23T01:10:56.424Z,35.7
2018-08-23T01:11:58.889Z,35.7
2018-08-23T01:13:01.083Z,35.7
2018-08-23T01:14:03.536Z,35.6
2018-08-23T01:15:05.992Z,35.7
2018-08-23T01:16:08.435Z,35.7
2018-08-23T01:17:11.077Z,35.8
2018-08-23T01:18:13.572Z,35.7
2018-08-23T01:19:16.027Z,35.7
2018-08-23T01:20:18.197Z,35.7
2018-08-23T01:21:20.388Z,35.7
2018-08-23T01:22:22.844Z,35.7
2018-08-23T01:23:25.043Z,35.7
2018-08-23T01:24:27.483Z,35.7
2018-08-23T01:25:29.655Z,35.8
2018-08-23T01:26:31.816Z,35.7
2018-08-23T01:27:34.284Z,35.7
2018-08-23T01:28:36.465Z,35.8
2018-08-23T01:29:38.395Z,35.8
2018-08-23T01:30:40.553Z,35.6
2018-08-23T01:31:42.744Z,35.8
2018-08-23T01:32:44.623Z,35.7
2018-08-23T01:33:46.505Z,35.6
2018-08-23T01:34:48.681Z,35.8
2018-08-23T01:35:50.585Z,35.7
2018-08-23T01:36:52.486Z,35.6
2018-08-23T01:37:54.654Z,35.7
2018-08-23T01:38:56.315Z,35.7
2018-08-23T01:39:58.763Z,35.7
2018-08-23T01:41:00.680Z,35.7
2018-08-23T01:42:02.890Z,35.7
2018-08-23T01:43:05.054Z,35.6
2018-08-23T01:44:07.288Z,35.7
2018-08-23T01:45:09.311Z,35.9
2018-08-23T01:46:11.805Z,35.7
2018-08-23T01:47:14.339Z,35.7
2018-08-23T01:48:16.794Z,35.8
2018-08-23T01:49:18.973Z,35.8
2018-08-23T01:50:21.153Z,35.7
2018-08-23T01:51:23.356Z,35.8
2018-08-23T01:52:25.550Z,35.8
2018-08-23T01:53:27.748Z,35.8
2018-08-23T01:54:29.945Z,35.7
2018-08-23T01:55:32.393Z,35.7
2018-08-23T01:56:34.574Z,35.8
2018-08-23T01:57:36.474Z,35.8
2018-08-23T01:58:38.926Z,35.8
2018-08-23T01:59:41.116Z,35.6
2018-08-23T02:00:43.554Z,35.7
2018-08-23T02:01:45.702Z,35.7
2018-08-23T02:02:47.599Z,35.8
2018-08-23T02:03:49.796Z,35.7
2018-08-23T02:04:51.699Z,35.8
2018-08-23T02:05:54.160Z,35.8
2018-08-23T02:06:56.341Z,35.8
2018-08-23T02:07:58.789Z,35.7
2018-08-23T02:09:01.244Z,35.8
2018-08-23T02:10:03.705Z,35.8
2018-08-23T02:11:06.175Z,35.8
2018-08-23T02:12:08.382Z,35.8
2018-08-23T02:13:10.832Z,35.6
2018-08-23T02:14:12.994Z,35.8
2018-08-23T02:15:15.212Z,35.7
2018-08-23T02:16:17.393Z,35.8
2018-08-23T02:17:19.847Z,35.9
2018-08-23T02:18:22.048Z,35.9
2018-08-23T02:19:24.195Z,35.9
2018-08-23T02:20:26.435Z,35.8
2018-08-23T02:21:28.611Z,35.8
2018-08-23T02:22:31.078Z,35.8
2018-08-23T02:23:33.533Z,35.8
2018-08-23T02:24:35.981Z,35.9
2018-08-23T02:25:38.426Z,35.7
2018-08-23T02:26:40.319Z,35.7
2018-08-23T02:27:42.509Z,35.8
2018-08-23T02:28:44.995Z,35.9
2018-08-23T02:29:47.171Z,35.8
2018-08-23T02:30:49.091Z,35.8
2018-08-23T02:31:51.028Z,35.8
2018-08-23T02:32:53.489Z,36
2018-08-23T02:33:55.954Z,35.8
2018-08-23T02:34:58.396Z,35.8
2018-08-23T02:36:00.856Z,35.9
2018-08-23T02:37:03.055Z,35.9
2018-08-23T02:38:05.232Z,35.8
2018-08-23T02:39:07.947Z,35.9
2018-08-23T02:40:09.864Z,35.8
2018-08-23T02:41:12.330Z,35.7
2018-08-23T02:42:14.497Z,35.9
2018-08-23T02:43:16.703Z,35.8
2018-08-23T02:44:18.883Z,35.9
2018-08-23T02:45:21.365Z,35.7
2018-08-23T02:46:23.316Z,35.8
2018-08-23T02:47:25.773Z,35.9
2018-08-23T02:48:27.957Z,35.7
2018-08-23T02:49:30.442Z,35.8
2018-08-23T02:50:32.046Z,35.9
2018-08-23T02:51:34.238Z,35.8
2018-08-23T02:52:36.388Z,35.9
2018-08-23T02:53:38.305Z,35.8
2018-08-23T02:54:40.224Z,35.8
2018-08-23T02:55:42.383Z,35.7
2018-08-23T02:56:43.992Z,35.8
2018-08-23T02:57:46.447Z,35.9
2018-08-23T02:58:48.660Z,35.8
2018-08-23T02:59:50.851Z,35.9
2018-08-23T03:00:53.024Z,36
2018-08-23T03:01:55.238Z,35.8
2018-08-23T03:02:57.768Z,35.8
2018-08-23T03:03:59.688Z,35.7
2018-08-23T03:05:01.651Z,35.7
2018-08-23T03:06:04.166Z,35.9
2018-08-23T03:07:06.621Z,35.8
2018-08-23T03:08:09.070Z,35.7
2018-08-23T03:09:11.532Z,35.6
2018-08-23T03:10:13.437Z,35.7
2018-08-23T03:11:15.919Z,35.7
2018-08-23T03:12:17.870Z,35.6
2018-08-23T03:13:20.308Z,35.8
2018-08-23T03:14:22.745Z,35.9
2018-08-23T03:15:24.388Z,35.8
2018-08-23T03:16:26.837Z,35.6
2018-08-23T03:17:29.297Z,35.6
2018-08-23T03:18:31.737Z,35.6
2018-08-23T03:19:33.650Z,35.6
2018-08-23T03:20:36.104Z,35.5
2018-08-23T03:21:38.570Z,35.6
2018-08-23T03:22:40.472Z,35.5
2018-08-23T03:23:42.640Z,35.5
2018-08-23T03:24:44.820Z,35.6
2018-08-23T03:25:47.026Z,35.5
2018-08-23T03:26:49.481Z,35.5
2018-08-23T03:27:51.951Z,35.6
2018-08-23T03:28:54.123Z,35.6
2018-08-23T03:29:56.281Z,35.6
2018-08-23T03:30:58.455Z,35.5
2018-08-23T03:32:00.925Z,35.5
2018-08-23T03:33:03.100Z,35.5
2018-08-23T03:34:05.273Z,35.6
2018-08-23T03:35:07.720Z,35.5
2018-08-23T03:36:09.937Z,35.4
2018-08-23T03:37:12.098Z,35.5
2018-08-23T03:38:14.550Z,35.5
2018-08-23T03:39:16.159Z,35.5
2018-08-23T03:40:18.321Z,35.4
2018-08-23T03:41:20.507Z,35.5
2018-08-23T03:42:22.742Z,35.6
2018-08-23T03:43:25.268Z,35.5
2018-08-23T03:44:27.213Z,35.5
2018-08-23T03:45:29.657Z,35.6
2018-08-23T03:46:32.113Z,35.5
2018-08-23T03:47:34.288Z,35.5
2018-08-23T03:48:36.447Z,35.4
2018-08-23T03:49:38.901Z,35.4
2018-08-23T03:50:41.369Z,35.4
2018-08-23T03:51:43.563Z,35.4
2018-08-23T03:52:45.778Z,35.3
2018-08-23T03:53:48.234Z,35.4
2018-08-23T03:54:50.680Z,35.4
2018-08-23T03:55:52.846Z,35.5
2018-08-23T03:56:55.314Z,35.4
2018-08-23T03:57:57.499Z,35.4
2018-08-23T03:58:59.676Z,35.3
2018-08-23T04:00:01.296Z,35.5
2018-08-23T04:01:03.466Z,35.4
2018-08-23T04:02:05.334Z,35.3
2018-08-23T04:03:07.496Z,35.2
2018-08-23T04:04:09.669Z,35.4
2018-08-23T04:05:12.111Z,35.5
2018-08-23T04:06:13.995Z,35.5
2018-08-23T04:07:16.443Z,35.3
2018-08-23T04:08:18.629Z,35.4
2018-08-23T04:09:20.772Z,35.4
2018-08-23T04:10:23.239Z,35.4
2018-08-23T04:11:25.678Z,35.4
2018-08-23T04:12:27.846Z,35.3
2018-08-23T04:13:30.299Z,35.3
2018-08-23T04:14:32.761Z,35.2
2018-08-23T04:15:34.921Z,35.3
2018-08-23T04:16:37.092Z,35.3
2018-08-23T04:17:39.527Z,35.3
2018-08-23T04:18:41.436Z,35.4
2018-08-23T04:19:42.778Z,35.3
2018-08-23T04:20:45.237Z,35.3
2018-08-23T04:21:47.682Z,35.3
2018-08-23T04:22:50.051Z,35.2
2018-08-23T04:23:52.939Z,35.3
2018-08-23T04:24:55.106Z,35.3
2018-08-23T04:25:56.716Z,35.3
2018-08-23T04:26:58.881Z,35.3
2018-08-23T04:28:01.320Z,35.3
2018-08-23T04:29:03.497Z,35.3
2018-08-23T04:30:05.680Z,35.3
2018-08-23T04:31:07.871Z,35.4
2018-08-23T04:32:10.048Z,35.4
2018-08-23T04:33:11.967Z,35.3
2018-08-23T04:34:14.146Z,35.3
2018-08-23T04:35:16.327Z,35.3
2018-08-23T04:36:18.500Z,35.3
2018-08-23T04:37:20.384Z,35.3
2018-08-23T04:38:22.841Z,35.2
2018-08-23T04:39:25.024Z,35.4
2018-08-23T04:40:27.188Z,35.3
2018-08-23T04:41:29.385Z,35.3
2018-08-23T04:42:31.296Z,35.3
2018-08-23T04:43:33.193Z,35.3
2018-08-23T04:44:35.638Z,35.4
2018-08-23T04:45:38.082Z,35.3
2018-08-23T04:46:40.254Z,35.2
2018-08-23T04:47:42.698Z,35.4
2018-08-23T04:48:44.621Z,35.2
2018-08-23T04:49:46.818Z,35.3
2018-08-23T04:50:49.275Z,35.2
2018-08-23T04:51:51.656Z,35.3
2018-08-23T04:52:54.108Z,35.4
2018-08-23T04:53:56.291Z,35.3
2018-08-23T04:54:58.747Z,35.3
2018-08-23T04:56:00.909Z,35.3
2018-08-23T04:57:03.105Z,35.3
2018-08-23T04:58:05.564Z,35.2
2018-08-23T04:59:08.024Z,35.2
2018-08-23T05:00:10.475Z,35.3
2018-08-23T05:01:12.934Z,35.3
2018-08-23T05:02:15.380Z,35.4
2018-08-23T05:03:17.519Z,35.3
2018-08-23T05:04:20.085Z,35.4
2018-08-23T05:05:22.010Z,35.2
2018-08-23T05:06:23.903Z,35.3
2018-08-23T05:07:25.789Z,35.3
2018-08-23T05:08:28.272Z,35.2
2018-08-23T05:09:30.430Z,35.3
2018-08-23T05:10:32.879Z,35.2
2018-08-23T05:11:35.048Z,35.2
2018-08-23T05:12:37.241Z,35.2
2018-08-23T05:13:39.708Z,35.2
2018-08-23T05:14:41.883Z,35.2
2018-08-23T05:15:44.330Z,35.2
2018-08-23T05:16:46.540Z,35.3
2018-08-23T05:17:49.005Z,35.2
2018-08-23T05:18:50.925Z,35.1
2018-08-23T05:19:53.121Z,35.2
2018-08-23T05:20:55.573Z,35.3
2018-08-23T05:21:57.788Z,35.3
2018-08-23T05:22:59.714Z,35.3
2018-08-23T05:24:01.934Z,35.3
2018-08-23T05:25:03.832Z,35.3
2018-08-23T05:26:06.290Z,35.2
2018-08-23T05:27:08.466Z,35.1
2018-08-23T05:28:10.107Z,35.2
2018-08-23T05:29:12.589Z,35.2
2018-08-23T05:30:15.037Z,35.2
2018-08-23T05:31:16.948Z,35.2
2018-08-23T05:32:19.416Z,35.4
2018-08-23T05:33:21.619Z,35.2
2018-08-23T05:34:23.803Z,35.2
2018-08-23T05:35:25.717Z,35.3
2018-08-23T05:36:27.609Z,35.2
2018-08-23T05:37:29.507Z,35.1
2018-08-23T05:38:31.676Z,35.2
2018-08-23T05:39:34.161Z,35.2
2018-08-23T05:40:36.614Z,35.2
2018-08-23T05:41:39.058Z,35.1
2018-08-23T05:42:41.248Z,35.2
2018-08-23T05:43:43.709Z,35.2
2018-08-23T05:44:45.868Z,35.2
2018-08-23T05:45:48.037Z,35.3
2018-08-23T05:46:50.501Z,35.2
2018-08-23T05:47:52.679Z,35.2
2018-08-23T05:48:54.591Z,35.2
2018-08-23T05:49:57.039Z,35.2
2018-08-23T05:50:58.942Z,35.1
2018-08-23T05:52:01.118Z,35.3
2018-08-23T05:53:03.262Z,35.1
2018-08-23T05:54:05.713Z,35.1
2018-08-23T05:55:07.918Z,35.2
2018-08-23T05:56:10.112Z,35.2
2018-08-23T05:57:12.553Z,35.1
2018-08-23T05:58:15.015Z,35.3
2018-08-23T05:59:17.201Z,35.1
2018-08-23T06:00:19.381Z,35.2
2018-08-23T06:01:21.835Z,35.3
2018-08-23T06:02:24.322Z,35.2
2018-08-23T06:03:26.507Z,35.2
2018-08-23T06:04:28.953Z,35.2
2018-08-23T06:05:31.156Z,35.2
2018-08-23T06:06:33.341Z,35.2
2018-08-23T06:07:35.525Z,35.2
2018-08-23T06:08:37.716Z,35.2
2018-08-23T06:09:40.163Z,35
2018-08-23T06:10:42.332Z,35.2
2018-08-23T06:11:44.776Z,35.2
2018-08-23T06:12:46.949Z,35.3
2018-08-23T06:13:49.118Z,35.2
2018-08-23T06:14:51.338Z,35.3
2018-08-23T06:15:53.780Z,35.2
2018-08-23T06:16:56.251Z,35.2
2018-08-23T06:17:58.159Z,35.2
2018-08-23T06:18:59.754Z,35.2
2018-08-23T06:20:02.390Z,35.2
2018-08-23T06:21:04.720Z,35.3
2018-08-23T06:22:06.881Z,35.1
2018-08-23T06:23:09.048Z,35.3
2018-08-23T06:24:11.249Z,35.2
2018-08-23T06:25:13.131Z,35.2
2018-08-23T06:26:15.303Z,35.2
2018-08-23T06:27:17.218Z,35.2
2018-08-23T06:28:19.206Z,35.2
2018-08-23T06:29:21.678Z,35.1
2018-08-23T06:30:24.138Z,35.3
2018-08-23T06:31:26.056Z,35.1
2018-08-23T06:32:27.657Z,35.1
2018-08-23T06:33:30.716Z,35.1
2018-08-23T06:34:34.279Z,35.2
2018-08-23T06:35:36.210Z,35.2
2018-08-23T06:36:38.578Z,35.2
2018-08-23T06:37:40.758Z,35.1
2018-08-23T06:38:42.950Z,35.1
2018-08-23T06:39:45.078Z,35
2018-08-23T06:40:47.547Z,35.2
2018-08-23T06:41:49.168Z,35.1
2018-08-23T06:42:51.067Z,35.2
2018-08-23T06:43:53.297Z,35.2
2018-08-23T06:44:55.482Z,35.2
2018-08-23T06:45:58.018Z,35.2
2018-08-23T06:46:59.652Z,35.2
2018-08-23T06:48:01.571Z,35.2
2018-08-23T06:49:03.514Z,35
2018-08-23T06:50:05.682Z,35.2
2018-08-23T06:51:07.919Z,35.1
2018-08-23T06:52:10.315Z,35.2
2018-08-23T06:53:12.491Z,35.1
2018-08-23T06:54:14.135Z,35.3
2018-08-23T06:55:16.609Z,35.2
2018-08-23T06:56:18.778Z,35.2
2018-08-23T06:57:20.396Z,35
2018-08-23T06:58:22.581Z,35.2
2018-08-23T06:59:24.490Z,35.1
2018-08-23T07:00:26.682Z,35.1
2018-08-23T07:01:28.913Z,35.2
2018-08-23T07:02:30.916Z,35.2
2018-08-23T07:03:33.109Z,35.2
2018-08-23T07:04:34.999Z,35
2018-08-23T07:05:36.379Z,35.2
2018-08-23T07:06:38.441Z,35.3
2018-08-23T07:07:41.027Z,35.1
2018-08-23T07:08:43.490Z,35.2
2018-08-23T07:09:45.923Z,35.1
2018-08-23T07:10:48.390Z,35.2
2018-08-23T07:11:50.362Z,35.2
2018-08-23T07:12:53.211Z,35.3
2018-08-23T07:13:55.399Z,35.1
2018-08-23T07:14:57.850Z,35.3
2018-08-23T07:15:59.474Z,35.2
2018-08-23T07:17:01.972Z,35.1
2018-08-23T07:18:03.864Z,35.2
2018-08-23T07:19:05.769Z,35.1
2018-08-23T07:20:07.427Z,35.1
2018-08-23T07:21:09.370Z,35.2
2018-08-23T07:22:11.655Z,35.1
2018-08-23T07:23:13.854Z,35.1
2018-08-23T07:24:16.250Z,35.1
2018-08-23T07:25:18.483Z,35.1
2018-08-23T07:26:21.058Z,35.2
2018-08-23T07:27:23.341Z,35.2
2018-08-23T07:28:25.529Z,35.2
2018-08-23T07:29:27.461Z,35.2
2018-08-23T07:30:29.371Z,35.1
2018-08-23T07:31:31.864Z,35.2
2018-08-23T07:32:34.068Z,35.1
2018-08-23T07:33:36.585Z,35.1
2018-08-23T07:34:39.212Z,35.2
2018-08-23T07:35:41.657Z,35.2
2018-08-23T07:36:43.862Z,35.1
2018-08-23T07:37:46.056Z,35
2018-08-23T07:38:47.940Z,35.1
2018-08-23T07:39:50.132Z,35.1
2018-08-23T07:40:52.307Z,35.1
2018-08-23T07:41:54.584Z,35.1
2018-08-23T07:42:57.169Z,35.2
2018-08-23T07:43:59.449Z,35.1
2018-08-23T07:45:01.653Z,35.2
2018-08-23T07:46:03.558Z,35.1
2018-08-23T07:47:05.499Z,35
2018-08-23T07:48:07.949Z,35.1
2018-08-23T07:49:10.403Z,35.1
2018-08-23T07:50:12.329Z,35.1
2018-08-23T07:51:14.570Z,35.1
2018-08-23T07:52:16.884Z,35
2018-08-23T07:53:19.352Z,35
2018-08-23T07:54:22.230Z,35.2
2018-08-23T07:55:24.683Z,35.2
2018-08-23T07:56:27.157Z,35.1
2018-08-23T07:57:29.345Z,35.1
2018-08-23T07:58:31.525Z,35.2
2018-08-23T07:59:33.984Z,35.2
2018-08-23T08:00:35.924Z,35.2
2018-08-23T08:01:38.097Z,35
2018-08-23T08:02:40.560Z,35.2
2018-08-23T08:03:42.757Z,35.1
2018-08-23T08:04:44.951Z,35.2
2018-08-23T08:05:47.429Z,35.2
2018-08-23T08:06:49.613Z,35.1
2018-08-23T08:07:51.535Z,35.2
2018-08-23T08:08:53.460Z,35.1
2018-08-23T08:09:55.627Z,35.2
2018-08-23T08:10:58.076Z,35.3
2018-08-23T08:12:00.271Z,35.2
2018-08-23T08:13:02.188Z,35.2
2018-08-23T08:14:04.376Z,35.2
2018-08-23T08:15:07.101Z,35.1
2018-08-23T08:16:09.456Z,35.1
2018-08-23T08:17:11.903Z,35.2
2018-08-23T08:18:13.805Z,35.1
2018-08-23T08:19:15.986Z,35.2
2018-08-23T08:20:18.157Z,35.2
2018-08-23T08:21:20.607Z,35.2
2018-08-23T08:22:22.495Z,35.1
2018-08-23T08:23:24.403Z,35.1
2018-08-23T08:24:26.596Z,35.1
2018-08-23T08:25:28.789Z,35.2
2018-08-23T08:26:30.957Z,35.2
2018-08-23T08:27:32.865Z,35.1
2018-08-23T08:28:35.038Z,35.2
2018-08-23T08:29:37.481Z,35.1
2018-08-23T08:30:39.658Z,35.2
2018-08-23T08:31:42.120Z,35.1
2018-08-23T08:32:44.042Z,35.2
2018-08-23T08:33:46.236Z,35.1
2018-08-23T08:34:48.418Z,35.1
2018-08-23T08:35:50.615Z,35.2
2018-08-23T08:36:52.804Z,35
2018-08-23T08:37:54.697Z,35.1
2018-08-23T08:38:57.165Z,35.1
2018-08-23T08:39:59.333Z,35.1
2018-08-23T08:41:01.790Z,35.1
2018-08-23T08:42:04.193Z,35
2018-08-23T08:43:06.668Z,35.1
2018-08-23T08:44:08.592Z,35.2
2018-08-23T08:45:10.778Z,35.2
2018-08-23T08:46:12.959Z,35.1
2018-08-23T08:47:15.429Z,35.1
2018-08-23T08:48:17.605Z,35.1
2018-08-23T08:49:19.823Z,35.2
2018-08-23T08:50:22.361Z,35.2
2018-08-23T08:51:24.651Z,35.1
2018-08-23T08:52:27.098Z,35.2
2018-08-23T08:53:29.553Z,35.2
2018-08-23T08:54:31.731Z,35.1
2018-08-23T08:55:33.956Z,35.2
2018-08-23T08:56:35.880Z,35.1
2018-08-23T08:57:38.187Z,35.1
2018-08-23T08:58:40.808Z,35
2018-08-23T08:59:43.004Z,35.2
2018-08-23T09:00:44.932Z,35.1
2018-08-23T09:01:47.126Z,35.1
2018-08-23T09:02:49.350Z,35.1
2018-08-23T09:03:51.541Z,35.1
2018-08-23T09:04:52.931Z,35.1
2018-08-23T09:05:54.818Z,35.2
2018-08-23T09:06:57.269Z,35.1
2018-08-23T09:07:59.473Z,35.2
2018-08-23T09:09:01.631Z,35.2
2018-08-23T09:10:04.096Z,35.1
2018-08-23T09:11:06.286Z,35.2
2018-08-23T09:12:08.733Z,35.1
2018-08-23T09:13:10.911Z,35.1
2018-08-23T09:14:13.370Z,35.2
2018-08-23T09:15:15.543Z,35.1
2018-08-23T09:16:17.446Z,35.1
2018-08-23T09:17:19.080Z,35.1
2018-08-23T09:18:20.998Z,35.1
2018-08-23T09:19:23.441Z,35.1
2018-08-23T09:20:25.965Z,35.2
2018-08-23T09:21:28.282Z,35.2
2018-08-23T09:22:30.728Z,35.1
2018-08-23T09:23:32.924Z,35.1
2018-08-23T09:24:35.385Z,35.1
2018-08-23T09:25:37.856Z,35.2
2018-08-23T09:26:40.058Z,35.1
2018-08-23T09:27:42.513Z,35
2018-08-23T09:28:44.697Z,35.1
2018-08-23T09:29:46.586Z,35.1
2018-08-23T09:30:49.022Z,35.1
2018-08-23T09:31:51.212Z,35
2018-08-23T09:32:53.669Z,35.2
2018-08-23T09:33:55.535Z,35.1
2018-08-23T09:34:56.927Z,35.2
2018-08-23T09:35:59.263Z,35
2018-08-23T09:37:01.716Z,35.1
2018-08-23T09:38:03.900Z,35.1
2018-08-23T09:39:06.356Z,35.1
2018-08-23T09:40:08.281Z,35.2
2018-08-23T09:41:10.747Z,35.1
2018-08-23T09:42:13.195Z,35.1
2018-08-23T09:43:15.394Z,35.2
2018-08-23T09:44:17.855Z,35.2
2018-08-23T09:45:20.308Z,35.2
2018-08-23T09:46:22.763Z,35.2
2018-08-23T09:47:24.940Z,35.2
2018-08-23T09:48:27.412Z,35.2
2018-08-23T09:49:29.869Z,35.3
2018-08-23T09:50:32.056Z,35.2
2018-08-23T09:51:34.596Z,35.2
2018-08-23T09:52:36.800Z,35.2
2018-08-23T09:53:39.236Z,35.1
2018-08-23T09:54:41.157Z,35.3
2018-08-23T09:55:43.347Z,35.4
2018-08-23T09:56:45.533Z,35.2
2018-08-23T09:57:48.208Z,35.1
2018-08-23T09:58:50.796Z,35.1
2018-08-23T09:59:53.134Z,35.2
2018-08-23T10:00:55.010Z,35.2
2018-08-23T10:01:57.478Z,35.1
2018-08-23T10:02:59.360Z,35.1
2018-08-23T10:04:01.817Z,35.2
2018-08-23T10:05:04.280Z,35.2
2018-08-23T10:06:06.484Z,35.2
2018-08-23T10:07:08.647Z,35.2
2018-08-23T10:08:11.102Z,35.2
2018-08-23T10:09:13.546Z,35.2
2018-08-23T10:10:15.474Z,35.2
2018-08-23T10:11:17.727Z,35.2
2018-08-23T10:12:20.537Z,35.3
2018-08-23T10:13:22.717Z,35.1
2018-08-23T10:14:25.167Z,35.1
2018-08-23T10:15:27.612Z,35.2
2018-08-23T10:16:29.798Z,35.3
2018-08-23T10:17:32.018Z,35.2
2018-08-23T10:18:34.451Z,35.2
2018-08-23T10:19:36.647Z,35.1
2018-08-23T10:20:38.871Z,35.2
2018-08-23T10:21:40.777Z,35.1
2018-08-23T10:22:42.667Z,35.4
2018-08-23T10:23:45.130Z,35.2
2018-08-23T10:24:47.012Z,35.1
2018-08-23T10:25:49.467Z,35.2
2018-08-23T10:26:51.109Z,35.1
2018-08-23T10:27:53.552Z,35.1
2018-08-23T10:28:56.022Z,35.2
2018-08-23T10:29:58.199Z,35.1
2018-08-23T10:31:00.398Z,35.1
2018-08-23T10:32:02.952Z,35.2
2018-08-23T10:33:05.245Z,35.1
2018-08-23T10:34:07.462Z,35.1
2018-08-23T10:35:09.355Z,35.2
2018-08-23T10:36:11.799Z,35.2
2018-08-23T10:37:14.249Z,35.1
2018-08-23T10:38:16.202Z,35.1
2018-08-23T10:39:18.645Z,35.2
2018-08-23T10:40:20.897Z,35.2
2018-08-23T10:41:22.808Z,35.2
2018-08-23T10:42:24.745Z,35.2
2018-08-23T10:43:27.188Z,35.2
2018-08-23T10:44:29.736Z,35.1
2018-08-23T10:45:31.946Z,35.1
2018-08-23T10:46:33.836Z,35.1
2018-08-23T10:47:35.485Z,35.2
2018-08-23T10:48:37.937Z,35.1
2018-08-23T10:49:40.389Z,35.2
2018-08-23T10:50:42.748Z,35.2
2018-08-23T10:51:45.381Z,35.2
2018-08-23T10:52:47.556Z,35.2
2018-08-23T10:53:49.744Z,35.1
2018-08-23T10:54:52.241Z,35.1
2018-08-23T10:55:54.696Z,35.2
2018-08-23T10:56:57.140Z,35.2
2018-08-23T10:57:59.068Z,35.2
2018-08-23T10:59:00.992Z,35.1
2018-08-23T11:00:03.004Z,35.1
2018-08-23T11:01:05.154Z,35.3
2018-08-23T11:02:07.618Z,35.1
2018-08-23T11:03:10.083Z,35.1
2018-08-23T11:04:12.269Z,35.3
2018-08-23T11:05:14.737Z,35.3
2018-08-23T11:06:17.204Z,35.2
2018-08-23T11:07:19.667Z,35.2
2018-08-23T11:08:21.827Z,35.1
2018-08-23T11:09:23.987Z,35.1
2018-08-23T11:10:26.179Z,35.1
2018-08-23T11:11:28.645Z,35.2
2018-08-23T11:12:30.844Z,35.1
2018-08-23T11:13:33.002Z,35.2
2018-08-23T11:14:35.251Z,35.2
2018-08-23T11:15:37.708Z,35.2
2018-08-23T11:16:40.332Z,35.2
2018-08-23T11:17:42.276Z,35.1
2018-08-23T11:18:44.465Z,35.3
2018-08-23T11:19:46.918Z,35.1
2018-08-23T11:20:49.101Z,35.1
2018-08-23T11:21:51.546Z,35
2018-08-23T11:22:53.991Z,35.1
2018-08-23T11:23:55.624Z,35.1
2018-08-23T11:24:58.103Z,35.2
2018-08-23T11:26:00.306Z,35
2018-08-23T11:27:02.776Z,35.2
2018-08-23T11:28:04.990Z,35.1
2018-08-23T11:29:07.206Z,35.2
2018-08-23T11:30:09.386Z,35.2
2018-08-23T11:31:11.837Z,35.2
2018-08-23T11:32:14.290Z,35.2
2018-08-23T11:33:16.754Z,35.1
2018-08-23T11:34:18.941Z,35.1
2018-08-23T11:35:20.857Z,35.2
2018-08-23T11:36:23.304Z,35.2
2018-08-23T11:37:25.505Z,35.2
2018-08-23T11:38:27.956Z,35.1
2018-08-23T11:39:30.418Z,35.2
2018-08-23T11:40:32.604Z,35.1
2018-08-23T11:41:35.049Z,35.1
2018-08-23T11:42:37.570Z,35.1
2018-08-23T11:43:40.207Z,35.1
2018-08-23T11:44:42.667Z,35.2
2018-08-23T11:45:44.841Z,35.2
2018-08-23T11:46:47.285Z,35.1
2018-08-23T11:47:49.728Z,35.1
2018-08-23T11:48:52.344Z,35.2
2018-08-23T11:49:54.789Z,35.2
2018-08-23T11:50:56.705Z,35.2
2018-08-23T11:51:58.615Z,35.2
2018-08-23T11:53:01.291Z,35.2
2018-08-23T11:54:03.427Z,35.1
2018-08-23T11:55:05.319Z,35.2
2018-08-23T11:56:07.487Z,35.2
2018-08-23T11:57:09.675Z,35.1
2018-08-23T11:58:12.127Z,35.3
2018-08-23T11:59:14.662Z,35.3
2018-08-23T12:00:17.623Z,35.4
2018-08-23T12:01:20.065Z,35.2
2018-08-23T12:02:21.676Z,35.2
2018-08-23T12:03:24.124Z,35.3
2018-08-23T12:04:26.019Z,35.2
2018-08-23T12:05:27.661Z,35.2
2018-08-23T12:06:29.958Z,35.2
2018-08-23T12:07:31.625Z,35.2
2018-08-23T12:08:34.073Z,35.2
2018-08-23T12:09:35.683Z,35.2
2018-08-23T12:10:37.576Z,35.2
2018-08-23T12:11:39.777Z,35.2
2018-08-23T12:12:42.227Z,35.3
2018-08-23T12:13:44.397Z,35.2
2018-08-23T12:14:46.286Z,35.2
2018-08-23T12:15:48.471Z,35.3
2018-08-23T12:16:50.943Z,35.2
2018-08-23T12:17:52.904Z,35.2
2018-08-23T12:18:55.109Z,35
2018-08-23T12:19:57.252Z,35.3
2018-08-23T12:20:59.416Z,35.2
2018-08-23T12:22:01.581Z,35.2
2018-08-23T12:23:04.036Z,35.2
2018-08-23T12:24:06.495Z,35.3
2018-08-23T12:25:08.963Z,35.3
2018-08-23T12:26:10.920Z,35.3
2018-08-23T12:27:13.596Z,35.3
2018-08-23T12:28:15.503Z,35.2
2018-08-23T12:29:17.976Z,35.3
2018-08-23T12:30:20.168Z,35.3
2018-08-23T12:31:22.626Z,35.2
2018-08-23T12:32:24.811Z,35.3
2018-08-23T12:33:27.249Z,35.2
2018-08-23T12:34:29.728Z,35.3
2018-08-23T12:35:32.168Z,35.2
2018-08-23T12:36:33.824Z,35.3
2018-08-23T12:37:36.094Z,35.3
2018-08-23T12:38:38.640Z,35.3
2018-08-23T12:39:41.087Z,35.2
2018-08-23T12:40:43.279Z,35.3
2018-08-23T12:41:45.468Z,35.3
2018-08-23T12:42:47.386Z,35.2
2018-08-23T12:43:49.553Z,35.2
2018-08-23T12:44:51.487Z,35.3
2018-08-23T12:45:53.660Z,35.2
2018-08-23T12:46:55.826Z,35.3
2018-08-23T12:47:58.289Z,35.3
2018-08-23T12:49:00.460Z,35.2
2018-08-23T12:50:02.653Z,35.2
2018-08-23T12:51:04.797Z,35.2
2018-08-23T12:52:07.245Z,35.2
2018-08-23T12:53:09.154Z,35.3
2018-08-23T12:54:11.733Z,35.2
2018-08-23T12:55:14.205Z,35.3
2018-08-23T12:56:16.501Z,35.2
2018-08-23T12:57:18.508Z,35.2
2018-08-23T12:58:20.413Z,35.1
2018-08-23T12:59:22.600Z,35.2
2018-08-23T13:00:25.046Z,35.2
2018-08-23T13:01:27.269Z,35.2
2018-08-23T13:02:30.409Z,35.3
2018-08-23T13:03:33.127Z,35.2
2018-08-23T13:04:35.652Z,35.1
2018-08-23T13:05:38.112Z,35.2
2018-08-23T13:06:40.568Z,35.3
2018-08-23T13:07:43.021Z,35.3
2018-08-23T13:08:45.465Z,35.2
2018-08-23T13:09:47.654Z,35.1
2018-08-23T13:10:49.799Z,35.2
2018-08-23T13:11:51.954Z,35.2
2018-08-23T13:12:54.167Z,35.2
2018-08-23T13:13:56.048Z,35.2
2018-08-23T13:14:58.210Z,35.3
2018-08-23T13:16:00.664Z,35.2
2018-08-23T13:17:02.556Z,35.2
2018-08-23T13:18:05.011Z,35.2
2018-08-23T13:19:07.498Z,35.2
2018-08-23T13:20:09.949Z,35.3
2018-08-23T13:21:11.873Z,35.2
2018-08-23T13:22:14.324Z,35.1
2018-08-23T13:23:16.530Z,35.2
2018-08-23T13:24:18.138Z,35.2
2018-08-23T13:25:20.064Z,35.2
2018-08-23T13:26:22.514Z,35.2
2018-08-23T13:27:24.925Z,35.2
2018-08-23T13:28:27.567Z,35.2
2018-08-23T13:29:29.753Z,35.2
2018-08-23T13:30:31.948Z,35.2
2018-08-23T13:31:33.874Z,35.1
2018-08-23T13:32:35.863Z,35.1
2018-08-23T13:33:38.072Z,35.2
2018-08-23T13:34:40.237Z,35.1
2018-08-23T13:35:42.137Z,35.2
2018-08-23T13:36:44.882Z,35.2
2018-08-23T13:37:47.717Z,35.2
2018-08-23T13:38:50.187Z,35.2
2018-08-23T13:39:52.367Z,35.2
2018-08-23T13:40:54.275Z,35.3
2018-08-23T13:41:56.943Z,35.2
2018-08-23T13:42:59.668Z,35.2
2018-08-23T13:44:01.950Z,35.2
2018-08-23T13:45:04.391Z,35.1
2018-08-23T13:46:06.573Z,35.1
2018-08-23T13:47:09.030Z,35.2
2018-08-23T13:48:11.010Z,35.2
2018-08-23T13:49:13.236Z,35.2